Time;durP1;ratioP1;P1;durP2;ratioP2;P2;SDS_P1;SDS_P2;PMS_P1;PMS_P2;Temp;Humidity;BMP_temperature;BMP_pressure;BME280_temperature;BME280_humidity;BME280_pressure;Samples;Min_cycle;Max_cycle;Signal;HPM_P1;HPM_P2
2021/05/31 00:00:16;;;;;;;;;;;;;;;11.42;77.81;98768.84;1710904;83;20385;-86
2021/05/31 00:02:44;;;;;;;;;;;;;;;11.33;77.79;98767.23;1711805;82;20578;-85
2021/05/31 00:05:11;;;;;;;;;;;;;;;11.34;77.81;98768.07;1728153;82;21995;-89
2021/05/31 00:07:37;;;;;;;;;;;;;;;11.38;77.81;98755.59;1720579;82;26041;-89
2021/05/31 00:10:04;;;;;;;;;;;;;;;11.43;77.84;98760.05;1711048;82;20338;-89
2021/05/31 00:12:30;;;;;;;;;;;;;;;11.44;77.87;98761.73;1728105;82;20595;-85
2021/05/31 00:14:56;;;;;;;;;;;;;;;11.43;77.86;98754.80;1724582;82;24903;-88
2021/05/31 00:17:24;;;;;;;;;;;;;;;11.44;77.87;98756.48;1732185;82;20333;-88
2021/05/31 00:19:51;;;;;;;;;;;;;;;11.44;77.87;98746.00;1717206;82;26034;-89
2021/05/31 00:22:19;;;;;;;;;;;;;;;11.43;77.86;98753.49;1720895;82;24381;-88
2021/05/31 00:24:46;;;;;;;;;;;;;;;11.40;77.88;98753.72;1729780;82;20266;-88
2021/05/31 00:27:12;;;;;;;;;;;;;;;11.39;77.89;98750.72;1726461;82;24989;-88
2021/05/31 00:29:38;;;;;;;;;;;;;;;11.39;77.92;98738.93;1720811;82;22718;-89
2021/05/31 00:32:16;;;;;;;;;;;;;;;11.38;77.93;98736.78;1701634;83;26044;-89
2021/05/31 00:34:48;;;;;;;;;;;;;;;11.39;77.92;98735.84;1733664;82;25111;-90
2021/05/31 00:37:26;;;;;;;;;;;;;;;11.42;77.94;98733.00;1721338;82;20331;-90
2021/05/31 00:39:52;;;;;;;;;;;;;;;11.39;77.95;98731.06;1726696;82;24957;-90
2021/05/31 00:42:30;;;;;;;;;;;;;;;11.39;77.97;98731.06;1728838;82;21995;-90
2021/05/31 00:44:56;;;;;;;;;;;;;;;11.41;77.95;98733.09;1727616;82;26005;-89
2021/05/31 00:47:36;;;;;;;;;;;;;;;11.38;77.95;98728.08;1719659;82;20447;-89
2021/05/31 00:50:02;;;;;;;;;;;;;;;11.33;77.94;98722.69;1724955;82;20291;-90
2021/05/31 00:52:37;;;;;;;;;;;;;;;11.33;77.93;98723.16;1735174;82;24987;-92
2021/05/31 00:55:04;;;;;;;;;;;;;;;11.29;77.86;98726.94;1705227;82;22440;-89
2021/05/31 00:57:30;;;;;;;;;;;;;;;11.23;77.86;98721.64;1717160;82;25999;-89
2021/05/31 01:00:06;;;;;;;;;;;;;;;11.22;77.86;98721.73;1727595;82;24388;-90
2021/05/31 01:02:32;;;;;;;;;;;;;;;11.21;77.86;98714.81;1717838;82;20223;-85
2021/05/31 01:04:58;;;;;;;;;;;;;;;11.20;77.86;98720.98;1723112;82;25057;-88
2021/05/31 01:07:26;;;;;;;;;;;;;;;11.20;77.86;98717.90;1718148;82;21959;-88
2021/05/31 01:10:09;;;;;;;;;;;;;;;11.16;77.87;98719.52;1719440;82;26598;-89
2021/05/31 01:12:41;;;;;;;;;;;;;;;11.18;77.87;98711.11;1723583;82;24397;-88
2021/05/31 01:15:09;;;;;;;;;;;;;;;11.18;77.87;98717.66;1714779;82;20296;-88
2021/05/31 01:17:36;;;;;;;;;;;;;;;11.16;77.87;98712.51;1711424;82;25010;-89
2021/05/31 01:20:05;;;;;;;;;;;;;;;11.12;77.84;98714.98;1715368;83;22812;-89
2021/05/31 01:22:36;;;;;;;;;;;;;;;11.07;77.86;98711.83;1695342;83;23204;-88
2021/05/31 01:25:27;;;;;;;;;;;;;;;11.00;77.82;98715.80;1714758;82;24481;-89
2021/05/31 01:28:01;;;;;;;;;;;;;;;10.91;77.81;98711.99;1718676;83;20309;-85
2021/05/31 01:30:33;;;;;;;;;;;;;;;10.85;77.79;98705.88;1709203;83;25780;-85
2021/05/31 01:33:01;;;;;;;;;;;;;;;10.82;77.78;98710.47;1691715;83;23003;-85
2021/05/31 01:35:29;;;;;;;;;;;;;;;10.76;77.77;98705.16;1727772;80;25971;-90
2021/05/31 01:38:19;;;;;;;;;;;;;;;10.72;77.76;98705.00;1721780;81;25147;-90
2021/05/31 01:40:46;;;;;;;;;;;;;;;10.71;77.77;98701.17;1724690;82;20243;-85
2021/05/31 01:43:13;;;;;;;;;;;;;;;10.66;77.79;98702.79;1723499;81;25046;-85
2021/05/31 01:45:41;;;;;;;;;;;;;;;10.60;77.78;98705.80;1732113;81;22163;-85
2021/05/31 01:48:09;;;;;;;;;;;;;;;10.55;77.76;98700.50;1728456;81;26479;-85
2021/05/31 01:50:36;;;;;;;;;;;;;;;10.53;77.78;98701.91;1727282;80;26640;-85
2021/05/31 01:53:03;;;;;;;;;;;;;;;10.51;77.80;98702.95;1725908;81;20242;-85
2021/05/31 01:55:30;;;;;;;;;;;;;;;10.51;77.80;98699.03;1724415;81;25016;-85
2021/05/31 01:57:56;;;;;;;;;;;;;;;10.45;77.84;98697.66;1726161;81;22098;-89
2021/05/31 02:00:23;;;;;;;;;;;;;;;10.44;77.84;98702.52;1722277;81;26793;-89
2021/05/31 02:02:49;;;;;;;;;;;;;;;10.44;77.88;98700.73;1722091;82;24485;-89
2021/05/31 02:05:16;;;;;;;;;;;;;;;10.41;77.87;98693.10;1724080;81;20338;-90
2021/05/31 02:07:42;;;;;;;;;;;;;;;10.39;77.87;98696.27;1723209;81;24980;-89
2021/05/31 02:10:10;;;;;;;;;;;;;;;10.37;77.87;98693.38;1718611;81;21990;-90
2021/05/31 02:12:52;;;;;;;;;;;;;;;10.34;77.88;98690.97;1726336;81;26059;-90
2021/05/31 02:15:38;;;;;;;;;;;;;;;10.30;77.88;98693.42;1731307;81;24035;-90
2021/05/31 02:18:26;;;;;;;;;;;;;;;10.27;77.90;98689.67;1714120;81;20292;-89
2021/05/31 02:20:54;;;;;;;;;;;;;;;10.27;77.92;98688.38;1721342;81;25059;-90
2021/05/31 02:23:21;;;;;;;;;;;;;;;10.26;77.95;98688.84;1706779;82;22730;-89
2021/05/31 02:25:48;;;;;;;;;;;;;;;10.25;77.99;98684.57;1732006;81;26061;-90
2021/05/31 02:28:14;;;;;;;;;;;;;;;10.25;78.03;98687.19;1727738;81;24519;-90
2021/05/31 02:30:40;;;;;;;;;;;;;;;10.24;78.05;98680.73;1720956;81;20332;-89
2021/05/31 02:33:13;;;;;;;;;;;;;;;10.24;78.08;98687.27;1717779;81;25030;-89
2021/05/31 02:35:39;;;;;;;;;;;;;;;10.27;78.13;98687.06;1715445;81;22078;-89
2021/05/31 02:38:06;;;;;;;;;;;;;;;10.25;78.16;98691.58;1726360;81;26029;-89
2021/05/31 02:40:50;;;;;;;;;;;;;;;10.26;78.21;98694.53;1730139;81;24632;-89
2021/05/31 02:43:16;;;;;;;;;;;;;;;10.26;78.25;98690.61;1729500;80;20296;-90
2021/05/31 02:45:42;;;;;;;;;;;;;;;10.25;78.27;98684.57;1733342;82;20357;-89
2021/05/31 02:48:08;;;;;;;;;;;;;;;10.27;78.30;98689.67;1723134;81;21882;-89
2021/05/31 02:50:34;;;;;;;;;;;;;;;10.29;78.36;98684.73;1727009;82;26028;-89
2021/05/31 02:53:08;;;;;;;;;;;;;;;10.28;78.39;98681.74;1723045;81;20309;-90
2021/05/31 02:55:51;;;;;;;;;;;;;;;10.27;78.40;98687.06;1714233;82;20295;-91
2021/05/31 02:58:23;;;;;;;;;;;;;;;10.27;78.45;98682.67;1730939;82;25046;-91
2021/05/31 03:00:49;;;;;;;;;;;;;;;10.25;78.45;98684.57;1714753;82;22556;-91
2021/05/31 03:03:15;;;;;;;;;;;;;;;10.26;78.53;98684.07;1718597;82;25969;-86
2021/05/31 03:05:41;;;;;;;;;;;;;;;10.26;78.55;98680.98;1712315;82;24497;-90
2021/05/31 03:08:07;;;;;;;;;;;;;;;10.25;78.56;98687.65;1714299;82;20240;-90
2021/05/31 03:10:33;;;;;;;;;;;;;;;10.25;78.62;98688.49;1714425;82;25056;-90
2021/05/31 03:13:00;;;;;;;;;;;;;;;10.26;78.64;98692.77;1718620;82;22151;-90
2021/05/31 03:15:30;;;;;;;;;;;;;;;10.25;78.67;98693.73;1720871;82;25419;-90
2021/05/31 03:18:09;;;;;;;;;;;;;;;10.25;78.69;98689.80;1719404;82;24552;-89
2021/05/31 03:23:20;;;;;;;;;;;;;;;10.27;78.75;98693.14;1712444;82;25711;-90
2021/05/31 03:25:46;;;;;;;;;;;;;;;10.27;78.77;98696.22;1682454;84;21943;-90
2021/05/31 03:28:12;;;;;;;;;;;;;;;10.26;78.81;98693.23;1681390;84;25951;-90
2021/05/31 03:30:38;;;;;;;;;;;;;;;10.25;78.83;98692.41;1686153;84;24507;-90
2021/05/31 03:33:04;;;;;;;;;;;;;;;10.26;78.88;98694.53;1701774;84;20677;-90
2021/05/31 03:35:33;;;;;;;;;;;;;;;10.26;78.92;98698.45;1701864;83;24953;-86
2021/05/31 03:37:58;;;;;;;;;;;;;;;10.26;78.96;98699.30;1698854;83;22267;-87
2021/05/31 03:40:25;;;;;;;;;;;;;;;10.27;79.02;98694.91;1700002;83;20944;-84
2021/05/31 03:42:52;;;;;;;;;;;;;;;10.25;79.06;98698.95;1700719;84;24513;-84
2021/05/31 03:45:20;;;;;;;;;;;;;;;10.31;79.10;98705.57;1699206;83;20337;-90
2021/05/31 03:47:46;;;;;;;;;;;;;;;10.34;79.16;98698.35;1706585;83;24979;-92
2021/05/31 03:50:33;;;;;;;;;;;;;;;10.37;79.21;98699.45;1675798;84;22440;-92
2021/05/31 03:53:02;;;;;;;;;;;;;;;10.38;79.26;98703.75;1701559;83;26880;-90
2021/05/31 03:55:28;;;;;;;;;;;;;;;10.42;79.32;98704.38;1697160;84;24367;-89
2021/05/31 03:57:54;;;;;;;;;;;;;;;10.42;79.37;98705.69;1691122;83;20335;-90
2021/05/31 04:00:26;;;;;;;;;;;;;;;10.44;79.40;98702.05;1693219;84;25542;-90
2021/05/31 04:03:11;;;;;;;;;;;;;;;10.47;79.45;98703.14;1695593;84;21995;-89
2021/05/31 04:05:54;;;;;;;;;;;;;;;10.49;79.49;98703.89;1695485;84;25914;-89
2021/05/31 04:13:46;;;;;;;;;;;;;;;10.60;79.63;98699.73;1688339;84;25178;-87
2021/05/31 04:16:12;;;;;;;;;;;;;;;10.61;79.65;98702.72;1694694;84;21911;-88
2021/05/31 04:18:39;;;;;;;;;;;;;;;10.59;79.69;98694.96;1696451;83;26541;-88
2021/05/31 04:21:05;;;;;;;;;;;;;;;10.59;79.71;98696.73;1695069;84;24505;-88
2021/05/31 04:23:31;;;;;;;;;;;;;;;10.56;79.73;98684.71;1692348;84;20289;-88
2021/05/31 04:26:01;;;;;;;;;;;;;;;10.54;79.74;98689.66;1694718;84;25558;-88
2021/05/31 04:28:27;;;;;;;;;;;;;;;10.54;79.78;98689.66;1688911;84;22802;-88
2021/05/31 04:30:53;;;;;;;;;;;;;;;10.54;79.81;98694.89;1694319;84;21029;-88
2021/05/31 04:33:19;;;;;;;;;;;;;;;10.54;79.84;98684.42;1697660;84;24413;-88
2021/05/31 04:35:45;;;;;;;;;;;;;;;10.56;79.88;98693.03;1694415;83;20276;-88
2021/05/31 04:38:11;;;;;;;;;;;;;;;10.57;79.93;98687.70;1690996;84;20669;-85
2021/05/31 04:40:38;;;;;;;;;;;;;;;10.61;79.99;98685.24;1692428;83;22172;-85
2021/05/31 04:43:04;;;;;;;;;;;;;;;10.68;80.07;98693.53;1693431;84;25882;-85
2021/05/31 04:48:33;;;;;;;;;;;;;;;10.76;80.18;98692.54;1689686;84;20296;-90
2021/05/31 04:51:01;;;;;;;;;;;;;;;10.79;80.24;98696.28;1692753;84;25780;-85
2021/05/31 04:53:33;;;;;;;;;;;;;;;10.81;80.30;98697.00;1701685;83;22739;-85
2021/05/31 04:56:02;;;;;;;;;;;;;;;10.81;80.33;98693.91;1709013;83;26118;-85
2021/05/31 04:58:28;;;;;;;;;;;;;;;10.81;80.37;98689.98;1708880;83;24365;-85
2021/05/31 05:00:54;;;;;;;;;;;;;;;10.85;80.43;98689.33;1683709;83;20717;-89
2021/05/31 05:03:20;;;;;;;;;;;;;;;10.88;80.48;98686.03;1708485;83;25058;-86
2021/05/31 05:05:50;;;;;;;;;;;;;;;10.96;80.54;98693.38;1681755;84;20265;-91
2021/05/31 05:08:17;;;;;;;;;;;;;;;11.04;80.62;98691.06;1680257;83;26020;-85
2021/05/31 05:11:20;;;;;;;;;;;;;;;11.11;80.67;98688.88;1709533;82;24351;-90
2021/05/31 05:13:46;;;;;;;;;;;;;;;11.16;80.74;98682.85;1707227;83;20360;-88
2021/05/31 05:16:20;;;;;;;;;;;;;;;11.27;80.80;98685.11;1670535;83;22612;-88
2021/05/31 05:18:48;;;;;;;;;;;;;;;11.40;80.88;98693.44;1705816;83;22225;-88
2021/05/31 05:21:17;;;;;;;;;;;;;;;11.52;80.96;98694.72;1705627;83;26163;-88
2021/05/31 05:23:44;;;;;;;;;;;;;;;11.56;81.04;98690.13;1707952;83;24439;-88
2021/05/31 05:26:18;;;;;;;;;;;;;;;11.67;81.06;98692.33;1712232;83;20301;-89
2021/05/31 05:28:44;;;;;;;;;;;;;;;11.80;81.13;98693.66;1711432;83;25064;-88
2021/05/31 05:31:11;;;;;;;;;;;;;;;11.91;81.14;98687.66;1711530;83;21880;-88
2021/05/31 05:33:40;;;;;;;;;;;;;;;11.99;81.16;98691.42;1707245;83;26688;-88
2021/05/31 05:36:19;;;;;;;;;;;;;;;12.01;81.16;98688.20;1705535;83;24985;-88
2021/05/31 05:39:00;;;;;;;;;;;;;;;11.99;81.09;98689.27;1703432;83;20209;-88
2021/05/31 05:41:19;;;;;;;;;;;;;;;12.06;81.07;98695.73;1705892;83;24996;-89
2021/05/31 05:49:03;;;;;;;;;;;;;;;12.38;81.07;98700.80;1682818;83;25167;-88
2021/05/31 05:51:29;;;;;;;;;;;;;;;12.35;80.98;98697.58;1711388;83;20258;-85
2021/05/31 05:53:58;;;;;;;;;;;;;;;12.44;80.95;98696.42;1706253;83;24952;-85
2021/05/31 05:56:24;;;;;;;;;;;;;;;12.48;80.91;98699.69;1708361;83;21964;-85
2021/05/31 05:58:52;;;;;;;;;;;;;;;12.53;80.87;98693.62;1708117;83;26041;-85
2021/05/31 06:01:19;;;;;;;;;;;;;;;12.55;80.80;98693.85;1711516;83;24450;-89
2021/05/31 06:03:47;;;;;;;;;;;;;;;12.67;80.77;98688.64;1703301;83;20241;-88
2021/05/31 06:06:24;;;;;;;;;;;;;;;12.76;80.71;98690.13;1706057;82;25158;-90
2021/05/31 06:08:51;;;;;;;;;;;;;;;12.82;80.70;98688.84;1706922;83;21999;-89
2021/05/31 06:11:20;;;;;;;;;;;;;;;12.92;80.67;98689.81;1709599;83;25885;-88
2021/05/31 06:13:50;;;;;;;;;;;;;;;13.07;80.67;98685.19;1705730;83;24419;-89
2021/05/31 06:16:15;;;;;;;;;;;;;;;13.15;80.64;98689.39;1707113;83;20256;-89
2021/05/31 06:18:41;;;;;;;;;;;;;;;13.26;80.61;98692.05;1710505;83;20365;-89
2021/05/31 06:21:10;;;;;;;;;;;;;;;13.32;80.53;98698.15;1713856;83;22033;-91
2021/05/31 06:23:42;;;;;;;;;;;;;;;13.31;80.44;98697.81;1708352;83;25890;-91
2021/05/31 06:26:08;;;;;;;;;;;;;;;13.33;80.36;98699.83;1709665;83;25252;-91
2021/05/31 06:28:34;;;;;;;;;;;;;;;13.32;80.23;98694.20;1711521;83;20364;-89
2021/05/31 06:31:00;;;;;;;;;;;;;;;13.28;80.11;98698.88;1709487;83;20825;-89
2021/05/31 06:33:26;;;;;;;;;;;;;;;13.24;79.96;98695.28;1704534;83;20268;-89
2021/05/31 06:35:52;;;;;;;;;;;;;;;13.17;79.82;98690.13;1704103;83;20994;-89
2021/05/31 06:38:28;;;;;;;;;;;;;;;13.08;79.70;98689.02;1707921;83;24476;-91
2021/05/31 06:41:06;;;;;;;;;;;;;;;13.05;79.58;98694.96;1709943;83;20205;-91
2021/05/31 06:43:33;;;;;;;;;;;;;;;12.98;79.50;98692.80;1694771;83;25061;-90
2021/05/31 06:46:02;;;;;;;;;;;;;;;12.93;79.42;98693.62;1708984;83;21994;-91
2021/05/31 06:48:34;;;;;;;;;;;;;;;12.97;79.39;98693.77;1703098;83;26662;-89
2021/05/31 06:51:00;;;;;;;;;;;;;;;13.20;79.43;98689.91;1706964;83;24353;-89
2021/05/31 06:53:26;;;;;;;;;;;;;;;13.49;79.49;98688.96;1703832;83;20801;-89
2021/05/31 06:55:52;;;;;;;;;;;;;;;13.59;79.48;98690.75;1663329;86;25573;-89
2021/05/31 06:58:19;;;;;;;;;;;;;;;13.65;79.39;98692.07;1667289;85;22589;-89
2021/05/31 07:00:47;;;;;;;;;;;;;;;13.70;79.31;98688.60;1668134;85;25947;-89
2021/05/31 07:03:13;;;;;;;;;;;;;;;13.83;79.25;98688.84;1665660;86;24433;-89
2021/05/31 07:05:39;;;;;;;;;;;;;;;13.95;79.20;98684.88;1667376;85;20253;-89
2021/05/31 07:08:05;;;;;;;;;;;;;;;13.99;79.11;98684.52;1667129;85;20410;-89
2021/05/31 07:10:31;;;;;;;;;;;;;;;14.07;79.03;98686.55;1667109;84;21989;-89
2021/05/31 07:12:58;;;;;;;;;;;;;;;14.10;78.93;98684.97;1640630;86;25982;-89
2021/05/31 07:15:25;;;;;;;;;;;;;;;14.14;78.82;98681.97;1667271;85;24645;-89
2021/05/31 07:18:00;;;;;;;;;;;;;;;14.16;78.70;98681.84;1667451;84;20618;-88
2021/05/31 07:20:26;;;;;;;;;;;;;;;14.17;78.54;98682.21;1666974;86;25007;-89
2021/05/31 07:22:52;;;;;;;;;;;;;;;14.21;78.37;98679.20;1665131;84;20437;-88
2021/05/31 07:25:18;;;;;;;;;;;;;;;14.22;78.22;98679.56;1665324;85;21043;-89
2021/05/31 07:27:45;;;;;;;;;;;;;;;14.27;78.08;98683.14;1667038;86;24371;-85
2021/05/31 07:30:12;;;;;;;;;;;;;;;14.33;77.98;98676.06;1668258;85;20583;-85
2021/05/31 07:32:39;;;;;;;;;;;;;;;14.39;77.86;98676.92;1666627;85;24960;-85
2021/05/31 07:35:06;;;;;;;;;;;;;;;14.43;77.75;98682.28;1667152;85;21996;-91
2021/05/31 07:37:37;;;;;;;;;;;;;;;14.50;77.65;98672.92;1666973;85;26014;-91
2021/05/31 07:40:05;;;;;;;;;;;;;;;14.61;77.58;98674.20;1667114;86;24565;-91
2021/05/31 07:42:37;;;;;;;;;;;;;;;14.75;77.49;98680.11;1666732;85;20273;-85
2021/05/31 07:45:04;;;;;;;;;;;;;;;14.75;77.36;98682.73;1667653;84;25765;-85
2021/05/31 07:47:33;;;;;;;;;;;;;;;14.76;77.20;98675.20;1666584;85;22172;-86
2021/05/31 07:49:59;;;;;;;;;;;;;;;14.82;77.04;98678.16;1667059;84;26041;-89
2021/05/31 07:52:28;;;;;;;;;;;;;;;14.88;76.84;98672.87;1665312;86;24395;-89
2021/05/31 07:54:54;;;;;;;;;;;;;;;14.98;76.74;98675.92;1689134;83;20306;-88
2021/05/31 07:57:21;;;;;;;;;;;;;;;15.11;76.64;98671.75;1704290;84;25155;-89
2021/05/31 07:59:56;;;;;;;;;;;;;;;15.23;76.53;98674.67;1701277;84;22037;-91
2021/05/31 08:02:23;;;;;;;;;;;;;;;15.28;76.41;98671.64;1699631;83;26748;-91
2021/05/31 08:04:49;;;;;;;;;;;;;;;15.30;76.25;98671.03;1706579;83;24537;-89
2021/05/31 08:07:15;;;;;;;;;;;;;;;15.31;76.08;98668.27;1702211;83;20293;-89
2021/05/31 08:09:41;;;;;;;;;;;;;;;15.35;75.89;98666.20;1697230;83;20793;-89
2021/05/31 08:12:14;;;;;;;;;;;;;;;15.37;75.74;98673.51;1702794;83;22073;-89
2021/05/31 08:14:46;;;;;;;;;;;;;;;15.42;75.60;98669.52;1703025;83;26682;-89
2021/05/31 08:17:12;;;;;;;;;;;;;;;15.50;75.39;98673.63;1701064;83;24682;-86
2021/05/31 08:19:38;;;;;;;;;;;;;;;15.50;75.20;98656.48;1700456;83;20263;-86
2021/05/31 08:22:05;;;;;;;;;;;;;;;15.52;74.94;98668.74;1697531;83;24997;-90
2021/05/31 08:24:33;;;;;;;;;;;;;;;15.50;74.71;98670.16;1704459;83;22218;-90
2021/05/31 08:26:59;;;;;;;;;;;;;;;15.53;74.56;98667.78;1701256;83;26827;-90
2021/05/31 08:29:28;;;;;;;;;;;;;;;15.55;74.33;98664.53;1702678;82;24612;-90
2021/05/31 08:31:57;;;;;;;;;;;;;;;15.61;74.15;98663.98;1705263;84;20598;-90
2021/05/31 08:34:28;;;;;;;;;;;;;;;15.72;73.99;98665.20;1705687;83;25066;-90
2021/05/31 08:36:56;;;;;;;;;;;;;;;15.76;73.89;98660.03;1704963;82;22194;-90
2021/05/31 08:39:22;;;;;;;;;;;;;;;15.67;73.65;98659.49;1700472;83;25989;-89
2021/05/31 08:41:48;;;;;;;;;;;;;;;15.67;73.50;98660.81;1700129;82;24516;-90
2021/05/31 08:44:15;;;;;;;;;;;;;;;15.70;73.39;98660.56;1702953;82;21109;-85
2021/05/31 08:46:41;;;;;;;;;;;;;;;15.59;73.14;98655.38;1704890;83;24961;-86
2021/05/31 08:49:07;;;;;;;;;;;;;;;15.41;72.85;98657.28;1707855;82;20810;-86
2021/05/31 08:51:34;;;;;;;;;;;;;;;15.38;72.64;98653.58;1703488;83;25947;-89
2021/05/31 08:54:00;;;;;;;;;;;;;;;15.48;72.50;98653.64;1701805;84;24401;-89
2021/05/31 08:56:31;;;;;;;;;;;;;;;15.53;72.38;98652.80;1689590;83;20548;-89
2021/05/31 08:58:57;;;;;;;;;;;;;;;15.58;72.30;98653.70;1695083;84;24980;-89
2021/05/31 09:01:37;;;;;;;;;;;;;;;15.64;72.19;98648.73;1696960;84;22219;-90
2021/05/31 09:04:07;;;;;;;;;;;;;;;15.62;71.98;98648.51;1689523;83;26637;-90
2021/05/31 09:06:35;;;;;;;;;;;;;;;15.71;71.79;98643.25;1693960;83;25236;-90
2021/05/31 09:09:01;;;;;;;;;;;;;;;15.83;71.67;98643.98;1695175;84;20287;-86
2021/05/31 09:11:28;;;;;;;;;;;;;;;15.86;71.50;98642.41;1691759;84;20237;-86
2021/05/31 09:13:55;;;;;;;;;;;;;;;15.90;71.37;98634.57;1690449;84;22074;-85
2021/05/31 09:16:24;;;;;;;;;;;;;;;16.06;71.31;98638.84;1694015;83;25978;-86
2021/05/31 09:18:54;;;;;;;;;;;;;;;16.19;71.27;98635.47;1696352;84;24435;-90
2021/05/31 09:21:22;;;;;;;;;;;;;;;16.20;71.03;98634.47;1692288;83;20273;-90
2021/05/31 09:23:52;;;;;;;;;;;;;;;16.24;70.79;98622.68;1686373;84;25881;-90
2021/05/31 09:26:20;;;;;;;;;;;;;;;16.31;70.61;98622.94;1693951;84;21902;-90
2021/05/31 09:28:55;;;;;;;;;;;;;;;16.30;70.39;98618.17;1710427;83;26024;-89
2021/05/31 09:31:21;;;;;;;;;;;;;;;16.31;70.09;98617.66;1712607;83;24609;-90
2021/05/31 09:34:01;;;;;;;;;;;;;;;16.39;69.81;98619.62;1710264;83;20276;-86
2021/05/31 09:36:28;;;;;;;;;;;;;;;16.53;69.64;98620.53;1707913;83;25163;-86
2021/05/31 09:38:57;;;;;;;;;;;;;;;16.66;69.47;98614.00;1708081;83;22676;-86
2021/05/31 09:41:24;;;;;;;;;;;;;;;16.68;69.28;98613.87;1710664;83;26007;-89
2021/05/31 09:43:52;;;;;;;;;;;;;;;16.62;68.97;98608.66;1706593;82;25081;-89
2021/05/31 09:46:19;;;;;;;;;;;;;;;16.68;68.68;98605.95;1705619;82;20655;-89
2021/05/31 09:48:45;;;;;;;;;;;;;;;16.90;68.54;98605.63;1710064;82;20311;-89
2021/05/31 09:51:22;;;;;;;;;;;;;;;17.11;68.43;98591.72;1708616;82;22081;-91
2021/05/31 09:53:50;;;;;;;;;;;;;;;17.40;68.31;98596.08;1710670;83;26038;-86
2021/05/31 09:56:23;;;;;;;;;;;;;;;17.41;67.96;98592.42;1714641;81;24538;-90
2021/05/31 09:59:04;;;;;;;;;;;;;;;17.44;67.62;98596.95;1707878;83;20260;-90
2021/05/31 10:01:36;;;;;;;;;;;;;;;17.58;67.39;98592.97;1706525;83;25703;-89
2021/05/31 10:04:31;;;;;;;;;;;;;;;17.63;67.09;98589.91;1710962;83;22030;-89
2021/05/31 10:06:49;;;;;;;;;;;;;;;17.51;66.45;98586.11;1706802;83;25932;-90
2021/05/31 10:09:04;;;;;;;;;;;;;;;17.45;65.95;98582.75;1702710;83;24445;-89
2021/05/31 10:11:30;;;;;;;;;;;;;;;17.47;65.63;98579.94;1714095;82;20296;-89
2021/05/31 10:13:57;;;;;;;;;;;;;;;17.50;65.43;98579.66;1717001;83;24947;-89
2021/05/31 10:16:24;;;;;;;;;;;;;;;17.59;65.27;98573.47;1718339;82;21584;-89
2021/05/31 10:18:51;;;;;;;;;;;;;;;17.73;65.08;98567.70;1706190;83;20909;-89
2021/05/31 10:21:22;;;;;;;;;;;;;;;17.80;64.84;98565.30;1709802;83;25695;-90
2021/05/31 10:23:45;;;;;;;;;;;;;;;17.83;64.59;98559.23;1713366;83;20575;-89
2021/05/31 10:26:12;;;;;;;;;;;;;;;17.96;64.40;98554.87;1710558;83;20264;-89
2021/05/31 10:28:39;;;;;;;;;;;;;;;18.18;64.22;98558.88;1715793;82;22053;-89
2021/05/31 10:31:07;;;;;;;;;;;;;;;18.29;63.84;98557.33;1710709;83;25909;-86
2021/05/31 10:33:40;;;;;;;;;;;;;;;18.40;63.61;98557.09;1713890;83;24556;-86
2021/05/31 10:36:18;;;;;;;;;;;;;;;18.35;63.23;98558.88;1688758;83;20551;-88
2021/05/31 10:38:47;;;;;;;;;;;;;;;18.31;63.00;98557.53;1714571;83;25669;-89
2021/05/31 10:41:15;;;;;;;;;;;;;;;18.22;62.64;98558.42;1715477;83;22020;-88
2021/05/31 10:43:54;;;;;;;;;;;;;;;18.31;62.40;98550.91;1715213;83;26641;-92
2021/05/31 10:46:22;;;;;;;;;;;;;;;18.42;62.15;98543.70;1711637;83;24484;-85
2021/05/31 10:48:54;;;;;;;;;;;;;;;18.47;61.75;98545.39;1717123;83;20292;-91
2021/05/31 10:51:19;;;;;;;;;;;;;;;18.46;61.36;98540.58;1721752;82;25009;-87
2021/05/31 10:53:51;;;;;;;;;;;;;;;18.34;60.88;98546.61;1712070;82;22078;-89
2021/05/31 10:56:18;;;;;;;;;;;;;;;18.22;60.40;98540.40;1715042;82;25800;-89
2021/05/31 10:58:49;;;;;;;;;;;;;;;18.18;60.02;98537.69;1722460;82;24442;-91
2021/05/31 11:01:30;;;;;;;;;;;;;;;18.24;59.71;98535.27;1724592;82;20193;-86
2021/05/31 11:04:01;;;;;;;;;;;;;;;18.21;59.32;98532.94;1685643;83;24985;-86
2021/05/31 11:06:26;;;;;;;;;;;;;;;18.08;58.86;98525.86;1718185;82;21960;-86
2021/05/31 11:09:11;;;;;;;;;;;;;;;17.82;58.27;98521.81;1715437;82;26108;-86
2021/05/31 11:11:39;;;;;;;;;;;;;;;17.66;57.95;98524.30;1725133;82;24552;-90
2021/05/31 11:14:11;;;;;;;;;;;;;;;17.51;57.66;98534.50;1725771;82;20305;-89
2021/05/31 11:16:58;;;;;;;;;;;;;;;17.34;57.36;98530.52;1724444;82;25814;-90
2021/05/31 11:19:34;;;;;;;;;;;;;;;17.19;57.01;98530.63;1724807;82;21932;-91
2021/05/31 11:22:04;;;;;;;;;;;;;;;17.00;56.84;98532.41;1727731;82;26032;-90
2021/05/31 11:24:30;;;;;;;;;;;;;;;16.79;56.71;98542.36;1708745;82;24539;-90
2021/05/31 11:26:57;;;;;;;;;;;;;;;16.70;56.70;98534.77;1722315;82;20272;-90
2021/05/31 11:29:23;;;;;;;;;;;;;;;16.61;56.66;98536.13;1717988;82;24993;-88
2021/05/31 11:31:50;;;;;;;;;;;;;;;16.50;56.56;98539.73;1721558;82;20277;-90
2021/05/31 11:34:16;;;;;;;;;;;;;;;16.40;56.41;98539.41;1726705;82;25909;-89
2021/05/31 11:36:45;;;;;;;;;;;;;;;16.36;56.33;98535.38;1718574;82;24424;-89
2021/05/31 11:39:14;;;;;;;;;;;;;;;16.33;56.27;98529.87;1695791;82;20217;-89
2021/05/31 11:41:46;;;;;;;;;;;;;;;16.27;56.21;98532.59;1719153;82;25207;-89
2021/05/31 11:44:14;;;;;;;;;;;;;;;16.15;56.10;98532.39;1726556;82;21981;-90
2021/05/31 11:46:44;;;;;;;;;;;;;;;16.20;56.13;98533.31;1718156;82;26147;-86
2021/05/31 11:49:10;;;;;;;;;;;;;;;16.24;56.20;98530.73;1707343;82;24520;-86
2021/05/31 11:51:37;;;;;;;;;;;;;;;16.30;56.30;98528.38;1725770;81;20281;-86
2021/05/31 11:54:12;;;;;;;;;;;;;;;16.26;56.33;98520.36;1720008;82;24998;-85
2021/05/31 11:56:33;;;;;;;;;;;;;;;16.31;56.38;98519.93;1727702;81;20324;-89
2021/05/31 11:59:00;;;;;;;;;;;;;;;16.40;56.45;98526.20;1704458;82;26603;-89
2021/05/31 12:01:28;;;;;;;;;;;;;;;16.47;56.63;98525.98;1726658;82;24490;-89
2021/05/31 12:03:54;;;;;;;;;;;;;;;16.47;56.72;98515.42;1719195;82;20294;-89
2021/05/31 12:06:20;;;;;;;;;;;;;;;16.45;56.73;98522.64;1718191;82;24998;-89
2021/05/31 12:08:47;;;;;;;;;;;;;;;16.39;56.65;98526.68;1686607;83;20273;-86
2021/05/31 12:11:24;;;;;;;;;;;;;;;16.28;56.51;98532.11;1699512;83;25970;-88
2021/05/31 12:14:01;;;;;;;;;;;;;;;16.15;56.40;98535.52;1701336;83;25011;-89
2021/05/31 12:16:29;;;;;;;;;;;;;;;16.00;56.33;98539.06;1698244;83;20308;-89
2021/05/31 12:18:55;;;;;;;;;;;;;;;15.91;56.43;98537.27;1704380;83;25052;-89
2021/05/31 12:21:21;;;;;;;;;;;;;;;15.77;56.43;98530.57;1708083;83;22228;-89
2021/05/31 12:23:48;;;;;;;;;;;;;;;15.65;56.41;98518.98;1709719;83;20931;-89
2021/05/31 12:26:14;;;;;;;;;;;;;;;15.66;56.44;98520.63;1702730;83;24421;-89
2021/05/31 12:28:40;;;;;;;;;;;;;;;15.76;56.55;98521.49;1710890;83;20209;-89
2021/05/31 12:31:06;;;;;;;;;;;;;;;15.85;56.67;98516.70;1707442;83;20304;-89
2021/05/31 12:33:33;;;;;;;;;;;;;;;16.00;56.78;98515.79;1704652;83;21998;-90
2021/05/31 12:36:01;;;;;;;;;;;;;;;16.16;56.87;98514.26;1701628;83;26002;-89
2021/05/31 12:38:33;;;;;;;;;;;;;;;16.30;56.95;98513.01;1706347;83;24500;-89
2021/05/31 12:40:59;;;;;;;;;;;;;;;16.44;57.04;98509.08;1703834;83;20316;-90
2021/05/31 12:43:32;;;;;;;;;;;;;;;16.54;57.11;98505.44;1708509;83;25089;-89
2021/05/31 12:46:00;;;;;;;;;;;;;;;16.60;57.17;98498.30;1702414;83;21993;-89
2021/05/31 12:48:26;;;;;;;;;;;;;;;16.70;57.31;98499.09;1705118;83;25998;-90
2021/05/31 12:50:54;;;;;;;;;;;;;;;16.73;57.27;98496.19;1706920;83;24496;-89
2021/05/31 12:53:24;;;;;;;;;;;;;;;16.69;57.21;98490.82;1709273;83;20756;-90
2021/05/31 12:55:50;;;;;;;;;;;;;;;16.72;57.11;98491.87;1704490;82;25151;-89
2021/05/31 12:58:17;;;;;;;;;;;;;;;16.84;57.13;98491.21;1688435;83;20243;-89
2021/05/31 13:00:45;;;;;;;;;;;;;;;17.00;57.10;98486.62;1697479;84;26679;-89
2021/05/31 13:03:13;;;;;;;;;;;;;;;17.20;57.15;98481.56;1690148;84;24701;-89
2021/05/31 13:05:41;;;;;;;;;;;;;;;17.32;57.02;98476.91;1692987;84;20355;-90
2021/05/31 13:08:11;;;;;;;;;;;;;;;17.35;56.88;98477.92;1652906;85;25832;-86
2021/05/31 13:10:39;;;;;;;;;;;;;;;17.43;56.82;98476.22;1690495;83;21934;-89
2021/05/31 13:13:13;;;;;;;;;;;;;;;17.50;56.80;98476.45;1694886;84;26766;-89